Time;durP1;ratioP1;P1;durP2;ratioP2;P2;SDS_P1;SDS_P2;PMS_P1;PMS_P2;Temp;Humidity;BMP_temperature;BMP_pressure;BME280_temperature;BME280_humidity;BME280_pressure;Samples;Min_cycle;Max_cycle;Signal;HPM_P1;HPM_P2
2021/06/26 00:02:06;;;;;;;3.02;0.90;;;;;;;18.55;77.81;95804.14;1760511;81;21492;-59
2021/06/26 00:04:36;;;;;;;3.42;0.80;;;;;;;18.60;76.93;95820.81;1760258;81;21022;-59
2021/06/26 00:07:06;;;;;;;4.53;1.20;;;;;;;18.60;75.86;95815.48;1760834;81;21065;-59
2021/06/26 00:09:35;;;;;;;4.17;1.00;;;;;;;18.56;75.63;95809.39;1761034;81;21563;-59
2021/06/26 00:12:09;;;;;;;10.45;1.32;;;;;;;18.55;75.72;95806.80;1759006;81;21062;-59
2021/06/26 00:14:37;;;;;;;;;;;;;;;18.49;76.87;95810.61;1763694;81;21018;-59
2021/06/26 00:17:08;;;;;;;4.35;0.75;;;;;;;18.44;77.92;95805.08;1727863;81;20161;-59
2021/06/26 00:19:37;;;;;;;5.00;1.00;;;;;;;18.34;78.64;95813.98;1760576;81;21149;-59
2021/06/26 00:22:06;;;;;;;6.50;1.55;;;;;;;18.29;78.96;95805.31;1761544;80;20982;-59
2021/06/26 00:24:35;;;;;;;4.72;0.90;;;;;;;18.25;78.57;95800.59;1760996;81;21025;-59
2021/06/26 00:27:04;;;;;;;6.75;1.32;;;;;;;18.21;78.14;95797.66;1763307;81;21033;-59
2021/06/26 00:29:35;;;;;;;2.08;0.70;;;;;;;18.12;78.33;95794.94;1762354;81;21096;-60
2021/06/26 00:32:08;;;;;;;4.95;1.12;;;;;;;18.05;78.29;95792.63;1761484;81;21105;-59
2021/06/26 00:34:38;;;;;;;3.27;0.95;;;;;;;18.03;76.79;95780.66;1728578;81;21038;-59
2021/06/26 00:37:07;;;;;;;6.30;0.80;;;;;;;18.08;77.69;95777.79;1759082;81;21046;-59
2021/06/26 00:39:35;;;;;;;2.40;0.62;;;;;;;18.08;79.10;95785.80;1719325;81;21055;-59
2021/06/26 00:42:04;;;;;;;4.95;0.80;;;;;;;18.13;78.73;95786.45;1764372;81;21022;-60
2021/06/26 00:44:34;;;;;;;4.33;1.20;;;;;;;18.10;77.93;95791.94;1761956;81;21022;-60
2021/06/26 00:47:11;;;;;;;5.70;1.22;;;;;;;18.12;79.01;95787.41;1759782;81;21010;-59
2021/06/26 00:49:36;;;;;;;2.50;0.70;;;;;;;18.12;79.25;95786.08;1758867;81;20995;-59
2021/06/26 00:52:04;;;;;;;3.67;0.80;;;;;;;18.11;79.36;95763.81;1760325;81;21623;-60
2021/06/26 00:54:31;;;;;;;4.45;0.80;;;;;;;18.15;79.46;95746.73;1762475;81;21018;-59
2021/06/26 00:56:58;;;;;;;7.20;0.90;;;;;;;18.19;78.91;95755.93;1762151;81;21070;-60
2021/06/26 00:59:25;;;;;;;2.12;0.80;;;;;;;18.16;78.09;95763.61;1760571;81;21077;-60
2021/06/26 01:01:52;;;;;;;2.70;1.00;;;;;;;18.11;78.64;95755.81;1730306;81;21027;-59
2021/06/26 01:04:19;;;;;;;3.47;0.93;;;;;;;18.09;78.55;95756.37;1762109;81;21547;-59
2021/06/26 01:06:46;;;;;;;3.52;1.17;;;;;;;18.12;79.02;95756.70;1760534;81;21073;-59
2021/06/26 01:09:13;;;;;;;7.35;0.93;;;;;;;18.15;79.08;95757.89;1763049;81;21559;-59
2021/06/26 01:11:40;;;;;;;7.20;0.70;;;;;;;18.16;78.90;95767.62;1761580;81;20986;-59
2021/06/26 01:14:07;;;;;;;2.77;0.78;;;;;;;18.12;80.01;95765.57;1763240;81;21088;-59
2021/06/26 01:16:34;;;;;;;5.17;0.90;;;;;;;18.07;79.55;95759.58;1760292;81;21037;-60
2021/06/26 01:19:01;;;;;;;3.22;0.70;;;;;;;18.08;79.77;95749.75;1761047;81;21089;-60
2021/06/26 01:21:28;;;;;;;2.65;0.88;;;;;;;18.12;79.77;95750.02;1758294;81;21082;-60
2021/06/26 01:23:57;;;;;;;1.42;0.70;;;;;;;18.18;79.37;95751.54;1761775;81;21030;-60
2021/06/26 01:26:28;;;;;;;5.80;0.90;;;;;;;18.20;78.63;95744.33;1759657;81;21018;-60
2021/06/26 01:28:52;;;;;;;2.85;0.80;;;;;;;18.20;79.11;95731.84;1762357;81;21101;-59
2021/06/26 01:31:19;;;;;;;3.80;1.20;;;;;;;18.25;78.94;95735.16;1760940;81;21105;-59
2021/06/26 01:33:46;;;;;;;2.70;0.80;;;;;;;18.33;78.70;95742.34;1761477;81;21112;-59
2021/06/26 01:36:13;;;;;;;2.83;0.98;;;;;;;18.34;78.49;95744.09;1762778;81;21018;-59
2021/06/26 01:38:40;;;;;;;1.87;1.10;;;;;;;18.29;77.97;95743.88;1762940;81;21560;-59
2021/06/26 01:41:07;;;;;;;3.20;0.65;;;;;;;18.27;77.82;95735.06;1759268;81;21081;-60
2021/06/26 01:43:34;;;;;;;3.27;0.75;;;;;;;18.21;77.04;95718.86;1760117;81;21018;-59
2021/06/26 01:46:01;;;;;;;3.47;1.00;;;;;;;18.16;77.41;95714.20;1757530;81;21030;-60
2021/06/26 01:48:27;;;;;;;4.72;1.50;;;;;;;18.06;78.21;95708.42;1763368;81;21089;-60
2021/06/26 01:50:54;;;;;;;3.05;1.00;;;;;;;18.09;79.11;95708.75;1761482;81;21552;-60
2021/06/26 01:53:21;;;;;;;5.72;0.95;;;;;;;18.16;79.01;95699.52;1762807;81;20986;-59
2021/06/26 01:55:51;;;;;;;2.52;0.85;;;;;;;18.16;78.50;95683.02;1762906;81;21065;-59
2021/06/26 01:58:17;;;;;;;4.75;1.27;;;;;;;18.19;78.16;95687.83;1763238;81;21472;-60
2021/06/26 02:00:43;;;;;;;4.90;0.98;;;;;;;18.10;78.53;95644.61;1762780;81;21069;-59
2021/06/26 02:03:10;;;;;;;2.22;1.32;;;;;;;18.08;78.51;95625.59;1762330;81;21065;-59
2021/06/26 02:05:37;;;;;;;1.90;0.70;;;;;;;18.08;76.72;95601.56;1763243;81;21061;-59
2021/06/26 02:08:05;;;;;;;1.20;0.60;;;;;;;17.98;75.79;95560.23;1760896;81;21029;-60
2021/06/26 02:10:32;;;;;;;3.62;0.70;;;;;;;17.94;76.17;95536.36;1759894;81;21050;-60
2021/06/26 02:12:59;;;;;;;3.00;0.60;;;;;;;17.87;76.48;95536.25;1759243;81;21081;-60
2021/06/26 02:15:26;;;;;;;6.28;0.72;;;;;;;17.80;76.96;95541.48;1760513;81;21034;-63
2021/06/26 02:17:53;;;;;;;2.05;0.50;;;;;;;17.74;78.25;95537.28;1762622;81;21611;-60
2021/06/26 02:20:20;;;;;;;3.15;0.90;;;;;;;17.64;78.37;95534.66;1759822;81;21117;-59
2021/06/26 02:22:47;;;;;;;2.92;0.90;;;;;;;17.60;78.83;95521.53;1763336;81;20979;-59
2021/06/26 02:25:16;;;;;;;4.47;0.55;;;;;;;17.53;78.60;95510.27;1758888;81;21022;-59
2021/06/26 02:27:44;;;;;;;2.80;0.70;;;;;;;17.48;78.81;95501.14;1757877;80;21065;-60
2021/06/26 02:30:14;;;;;;;1.00;0.53;;;;;;;17.45;78.04;95506.63;1729388;81;21030;-60
2021/06/26 02:32:41;;;;;;;3.83;0.78;;;;;;;17.44;77.87;95516.91;1762314;81;21524;-60
2021/06/26 02:35:10;;;;;;;6.58;0.60;;;;;;;17.43;79.29;95511.64;1761149;81;20979;-59
2021/06/26 02:37:38;;;;;;;3.37;0.60;;;;;;;17.37;80.12;95498.13;1758922;81;21029;-60
2021/06/26 02:40:07;;;;;;;2.52;0.70;;;;;;;17.30;79.58;95498.88;1760481;81;20998;-59
2021/06/26 02:42:34;;;;;;;3.02;0.60;;;;;;;17.31;79.24;95493.06;1759785;81;21489;-59
2021/06/26 02:45:00;;;;;;;5.00;0.60;;;;;;;17.34;79.55;95489.39;1760058;81;21125;-59
2021/06/26 02:47:27;;;;;;;6.30;1.00;;;;;;;17.32;79.70;95485.48;1762791;81;20982;-59
2021/06/26 02:49:53;;;;;;;3.58;0.70;;;;;;;17.24;79.95;95491.17;1760019;81;21013;-59
2021/06/26 02:52:20;;;;;;;4.58;0.82;;;;;;;17.23;79.96;95485.90;1762006;81;21108;-60
2021/06/26 02:54:47;;;;;;;2.17;0.62;;;;;;;17.29;79.78;95482.97;1763656;81;21001;-60
2021/06/26 02:57:13;;;;;;;3.00;0.90;;;;;;;17.32;79.77;95482.81;1762055;81;21017;-60
2021/06/26 02:59:39;;;;;;;3.52;0.70;;;;;;;17.27;78.84;95482.16;1760704;81;21018;-60
2021/06/26 03:02:06;;;;;;;3.45;0.60;;;;;;;17.17;78.87;95481.72;1760188;81;21566;-60
2021/06/26 03:04:32;;;;;;;3.60;0.90;;;;;;;17.15;79.56;95481.40;1757914;81;21014;-59
2021/06/26 03:06:59;;;;;;;5.40;0.60;;;;;;;17.08;80.29;95488.80;1759226;81;21046;-59
2021/06/26 03:09:25;;;;;;;4.90;0.90;;;;;;;17.06;80.17;95485.36;1758551;81;21434;-59
2021/06/26 03:11:52;;;;;;;2.92;1.00;;;;;;;17.09;80.07;95488.74;1763104;81;21144;-59
2021/06/26 03:14:18;;;;;;;2.70;1.00;;;;;;;17.05;79.46;95488.47;1761532;81;21551;-59
2021/06/26 03:16:45;;;;;;;5.45;1.17;;;;;;;17.01;80.85;95492.67;1763121;81;21045;-60
2021/06/26 03:19:12;;;;;;;5.50;0.70;;;;;;;17.03;79.98;95498.37;1759588;81;21021;-59
2021/06/26 03:21:38;;;;;;;3.02;0.70;;;;;;;17.06;80.31;95501.36;1762425;81;21018;-59
2021/06/26 03:24:07;;;;;;;1.67;0.68;;;;;;;17.08;80.29;95507.02;1758071;81;21061;-59
2021/06/26 03:26:34;;;;;;;7.97;0.98;;;;;;;17.19;80.17;95516.33;1763569;81;21058;-59
2021/06/26 03:29:04;;;;;;;4.20;0.80;;;;;;;17.26;80.05;95516.41;1760838;81;21100;-59
2021/06/26 03:31:32;;;;;;;4.83;1.10;;;;;;;17.21;79.72;95509.09;1764364;81;21022;-59
2021/06/26 03:34:00;;;;;;;4.70;0.80;;;;;;;17.09;80.50;95520.73;1761378;81;21005;-59
2021/06/26 03:36:26;;;;;;;4.50;0.72;;;;;;;17.12;80.72;95523.73;1758443;81;21023;-59
2021/06/26 03:38:53;;;;;;;5.05;1.20;;;;;;;17.20;80.61;95536.70;1762532;81;21476;-59
2021/06/26 03:41:24;;;;;;;2.60;0.75;;;;;;;17.25;79.64;95535.55;1763303;81;21050;-60
2021/06/26 03:43:48;;;;;;;5.72;1.37;;;;;;;17.26;80.27;95553.74;1762829;81;21014;-59
2021/06/26 03:46:14;;;;;;;4.95;0.90;;;;;;;17.28;80.42;95547.41;1761130;81;21088;-59
2021/06/26 03:48:41;;;;;;;5.30;0.80;;;;;;;17.38;80.65;95559.00;1761740;81;21081;-59
2021/06/26 03:51:07;;;;;;;5.55;0.90;;;;;;;17.55;80.04;95567.09;1762375;81;21077;-59
2021/06/26 03:53:34;;;;;;;4.08;1.10;;;;;;;17.63;79.70;95564.06;1762356;81;21120;-59
2021/06/26 03:56:00;;;;;;;4.28;1.30;;;;;;;17.72;79.53;95572.51;1761863;81;21026;-59
2021/06/26 03:58:27;;;;;;;3.02;1.50;;;;;;;17.81;78.86;95583.23;1763160;81;20986;-60
2021/06/26 04:00:56;;;;;;;3.42;1.50;;;;;;;17.85;78.79;95596.84;1765818;81;21061;-59
2021/06/26 04:03:24;;;;;;;6.33;1.17;;;;;;;17.91;79.40;95607.22;1763000;81;21013;-59
2021/06/26 04:05:51;;;;;;;3.65;0.93;;;;;;;17.93;78.45;95609.83;1760605;81;21014;-59
2021/06/26 04:08:18;;;;;;;2.85;1.00;;;;;;;17.90;78.10;95604.17;1760523;81;21026;-59
2021/06/26 04:10:45;;;;;;;2.33;1.02;;;;;;;17.97;78.40;95617.21;1760074;81;21109;-59
2021/06/26 04:13:12;;;;;;;3.45;1.10;;;;;;;18.05;78.65;95628.41;1761561;81;20978;-59
2021/06/26 04:15:39;;;;;;;3.55;1.05;;;;;;;18.09;77.83;95632.20;1761595;81;21026;-60
2021/06/26 04:18:06;;;;;;;3.17;1.00;;;;;;;18.13;77.52;95636.92;1759782;81;21141;-60
2021/06/26 04:20:33;;;;;;;3.37;1.60;;;;;;;18.11;77.82;95638.80;1745624;81;21019;-60
2021/06/26 04:22:59;;;;;;;6.95;2.67;;;;;;;18.01;78.27;95649.03;1729518;81;21031;-60
2021/06/26 04:25:30;;;;;;;7.83;2.58;;;;;;;17.94;78.17;95648.92;1744568;81;21053;-60
2021/06/26 04:27:55;;;;;;;7.30;2.50;;;;;;;17.87;79.49;95649.69;1751306;81;21532;-60
2021/06/26 04:30:22;;;;;;;4.70;2.02;;;;;;;17.86;78.89;95657.77;1733551;81;21058;-59
2021/06/26 04:32:48;;;;;;;3.65;1.55;;;;;;;17.93;78.30;95648.06;1727525;81;21003;-59
2021/06/26 04:35:19;;;;;;;5.30;1.80;;;;;;;17.95;77.68;95652.00;1720729;82;21054;-59
2021/06/26 04:37:43;;;;;;;3.27;1.45;;;;;;;17.98;78.71;95648.33;1724850;81;20999;-59
2021/06/26 04:40:12;;;;;;;6.80;2.20;;;;;;;17.98;79.36;95653.19;1729031;81;21537;-59
2021/06/26 04:42:38;;;;;;;5.78;2.60;;;;;;;18.07;80.14;95655.91;1724574;81;21002;-60
2021/06/26 04:45:07;;;;;;;6.42;1.55;;;;;;;18.24;80.02;95651.95;1728912;81;21592;-60
2021/06/26 04:47:33;;;;;;;3.17;1.30;;;;;;;18.37;79.43;95651.77;1724396;81;21023;-60
2021/06/26 04:50:00;;;;;;;5.20;1.52;;;;;;;18.51;79.09;95648.41;1745424;81;21026;-60
2021/06/26 04:52:27;;;;;;;4.35;1.20;;;;;;;18.63;77.95;95648.30;1749951;81;21468;-60
2021/06/26 04:54:53;;;;;;;4.50;1.50;;;;;;;18.75;77.27;95645.05;1750788;81;21007;-60
2021/06/26 04:57:20;;;;;;;3.27;1.37;;;;;;;18.93;77.59;95651.27;1739427;81;21030;-60
2021/06/26 04:59:46;;;;;;;3.08;1.10;;;;;;;19.10;77.30;95650.88;1737556;81;21500;-60
2021/06/26 05:02:13;;;;;;;4.92;1.60;;;;;;;19.24;76.08;95651.03;1757562;81;21477;-60
2021/06/26 05:04:40;;;;;;;6.28;1.62;;;;;;;19.29;76.02;95648.13;1742425;81;21152;-59
2021/06/26 05:07:07;;;;;;;2.35;1.67;;;;;;;19.38;75.33;95649.00;1756684;81;21588;-59
2021/06/26 05:09:34;;;;;;;2.83;1.22;;;;;;;19.70;72.18;95653.12;1728675;81;21090;-60
2021/06/26 05:12:01;;;;;;;7.12;1.42;;;;;;;19.70;72.18;95653.12;1735860;81;21023;-60
2021/06/26 05:14:27;;;;;;;4.17;1.47;;;;;;;19.76;73.12;95645.64;1741640;81;21070;-59
2021/06/26 05:16:54;;;;;;;5.22;1.60;;;;;;;19.83;73.04;95652.41;1761648;81;21033;-60
2021/06/26 05:19:20;;;;;;;6.83;2.02;;;;;;;19.89;72.54;95654.73;1743088;81;21023;-59
2021/06/26 05:21:47;;;;;;;6.10;1.47;;;;;;;19.92;72.24;95651.02;1762520;81;21030;-60
2021/06/26 05:24:14;;;;;;;4.62;1.32;;;;;;;19.92;72.67;95647.00;1726967;81;21019;-59
2021/06/26 05:26:41;;;;;;;3.77;1.27;;;;;;;19.98;71.99;95646.69;1742801;80;21042;-59
2021/06/26 05:29:07;;;;;;;1.37;1.07;;;;;;;20.01;71.23;95645.17;1736779;81;21055;-59
2021/06/26 05:31:34;;;;;;;3.27;1.55;;;;;;;20.08;71.39;95631.84;1737021;81;21019;-59
2021/06/26 05:34:00;;;;;;;3.52;1.17;;;;;;;20.21;71.76;95641.39;1742630;80;21077;-59
2021/06/26 05:36:27;;;;;;;8.23;1.40;;;;;;;20.28;71.81;95641.41;1758293;81;21623;-61
2021/06/26 05:38:54;;;;;;;5.65;1.20;;;;;;;20.39;72.35;95638.63;1729217;81;21504;-59
2021/06/26 05:41:20;;;;;;;3.20;1.15;;;;;;;20.42;71.49;95642.47;1747451;81;21558;-59
2021/06/26 05:43:47;;;;;;;4.17;1.42;;;;;;;20.46;71.33;95644.89;1738377;81;21136;-59
2021/06/26 05:46:13;;;;;;;8.68;1.75;;;;;;;20.58;71.07;95645.16;1740826;81;21518;-59
2021/06/26 05:48:40;;;;;;;4.20;1.07;;;;;;;20.69;70.15;95638.25;1726529;81;21033;-60
2021/06/26 05:51:06;;;;;;;3.77;1.40;;;;;;;20.72;69.24;95639.88;1760515;81;21089;-60
2021/06/26 05:53:33;;;;;;;5.58;1.30;;;;;;;20.75;69.13;95633.85;1746019;81;21039;-60
2021/06/26 05:55:59;;;;;;;4.00;1.45;;;;;;;20.81;68.87;95633.11;1747471;81;21061;-60
2021/06/26 05:58:33;;;;;;;1.67;0.90;;;;;;;20.90;67.85;95637.46;1745872;81;21050;-59
2021/06/26 06:01:01;;;;;;;4.35;1.10;;;;;;;20.90;66.33;95632.58;1736403;80;21026;-59
2021/06/26 06:03:28;;;;;;;3.40;1.02;;;;;;;21.03;67.98;95636.26;1749508;81;21039;-59
2021/06/26 06:05:55;;;;;;;7.22;1.47;;;;;;;21.11;67.07;95638.48;1724588;81;21022;-59
2021/06/26 06:08:21;;;;;;;2.92;1.17;;;;;;;21.21;67.41;95638.32;1738591;80;21396;-59
2021/06/26 06:10:48;;;;;;;1.92;0.90;;;;;;;21.26;65.87;95637.56;1754172;81;21184;-59
2021/06/26 06:13:19;;;;;;;5.75;1.47;;;;;;;21.35;66.00;95630.80;1755639;81;21038;-60
2021/06/26 06:15:49;;;;;;;8.95;1.70;;;;;;;21.44;64.84;95629.39;1759399;81;21047;-59
2021/06/26 06:18:18;;;;;;;6.17;1.50;;;;;;;21.53;66.00;95630.19;1726020;81;21027;-59
2021/06/26 06:20:46;;;;;;;1.98;1.15;;;;;;;21.57;65.76;95623.64;1728660;81;21074;-59
2021/06/26 06:23:13;;;;;;;6.22;1.40;;;;;;;21.68;65.14;95616.30;1724346;81;21037;-59
2021/06/26 06:25:40;;;;;;;3.30;1.20;;;;;;;21.78;65.33;95608.05;1724191;81;21068;-59
2021/06/26 06:28:07;;;;;;;7.42;1.20;;;;;;;21.89;64.30;95600.64;1744089;81;21014;-60
2021/06/26 06:30:35;;;;;;;3.05;1.37;;;;;;;21.96;66.55;95596.62;1753003;81;21025;-59
2021/06/26 06:33:04;;;;;;;3.33;1.50;;;;;;;22.04;66.54;95596.98;1742101;81;21079;-59
2021/06/26 06:35:31;;;;;;;4.45;1.40;;;;;;;22.13;66.09;95589.69;1749763;81;21508;-59
2021/06/26 06:37:59;;;;;;;5.95;1.62;;;;;;;22.22;66.15;95588.25;1733655;81;21035;-59
2021/06/26 06:40:26;;;;;;;4.05;1.85;;;;;;;22.35;65.35;95581.13;1742281;81;21164;-59
2021/06/26 06:42:53;;;;;;;6.53;1.80;;;;;;;22.44;64.39;95573.78;1747199;80;21030;-59
2021/06/26 06:45:21;;;;;;;4.70;1.90;;;;;;;22.59;65.07;95571.91;1763478;81;21073;-60
2021/06/26 06:47:48;;;;;;;6.35;2.02;;;;;;;22.74;64.82;95567.83;1758550;81;21023;-60
2021/06/26 06:50:14;;;;;;;2.42;1.60;;;;;;;22.89;64.89;95570.34;1727989;81;21051;-59
2021/06/26 06:52:41;;;;;;;2.55;1.30;;;;;;;23.06;64.92;95565.69;1753889;81;21054;-59
2021/06/26 06:55:09;;;;;;;3.33;1.55;;;;;;;23.21;63.70;95565.97;1733191;81;21026;-60
2021/06/26 06:57:35;;;;;;;5.17;2.02;;;;;;;23.38;63.86;95560.73;1743951;81;21019;-59
2021/06/26 07:00:05;;;;;;;4.75;1.80;;;;;;;23.54;62.99;95549.28;1716289;81;21133;-59
2021/06/26 07:02:32;;;;;;;4.25;1.77;;;;;;;23.69;62.71;95549.17;1749529;81;21002;-60
2021/06/26 07:04:58;;;;;;;8.98;1.70;;;;;;;23.90;63.36;95551.69;1756904;81;21134;-59
2021/06/26 07:07:25;;;;;;;3.02;1.70;;;;;;;24.08;62.35;95549.49;1732044;81;21003;-59
2021/06/26 07:09:51;;;;;;;6.15;2.00;;;;;;;24.22;62.53;95547.61;1746939;81;21587;-59
2021/06/26 07:12:18;;;;;;;5.00;1.87;;;;;;;24.31;62.55;95550.98;1756098;81;21162;-60
2021/06/26 07:14:45;;;;;;;4.42;1.62;;;;;;;24.42;62.25;95547.03;1741127;81;21042;-60
2021/06/26 07:17:11;;;;;;;4.33;1.87;;;;;;;24.54;60.93;95546.61;1762579;81;21061;-60
2021/06/26 07:19:38;;;;;;;4.03;1.60;;;;;;;24.65;61.21;95546.69;1737254;81;21054;-59
2021/06/26 07:22:04;;;;;;;6.00;1.70;;;;;;;24.77;60.61;95547.11;1753295;81;21062;-60
2021/06/26 07:24:31;;;;;;;5.22;1.82;;;;;;;24.90;60.25;95544.83;1727012;81;21576;-60
2021/06/26 07:26:58;;;;;;;6.00;2.55;;;;;;;25.04;59.77;95546.82;1745013;81;21066;-60
2021/06/26 07:29:25;;;;;;;4.35;2.27;;;;;;;25.11;55.95;95549.92;1716396;81;21099;-60
2021/06/26 07:31:51;;;;;;;6.67;2.05;;;;;;;25.14;55.38;95550.17;1737024;80;21062;-59
2021/06/26 07:34:18;;;;;;;6.83;2.05;;;;;;;25.19;55.05;95534.51;1730423;81;20999;-59
2021/06/26 07:36:45;;;;;;;8.50;2.02;;;;;;;25.25;54.64;95547.05;1744230;81;21563;-59
2021/06/26 07:39:11;;;;;;;4.53;1.90;;;;;;;25.21;52.86;95548.26;1758894;80;21643;-59
2021/06/26 07:41:38;;;;;;;4.83;2.27;;;;;;;25.15;51.41;95542.43;1749514;81;21042;-60
2021/06/26 07:44:05;;;;;;;5.58;1.82;;;;;;;25.24;53.81;95547.16;1738127;81;21077;-60
2021/06/26 07:46:32;;;;;;;5.05;2.25;;;;;;;25.24;52.35;95548.02;1705198;81;21147;-59
2021/06/26 07:48:59;;;;;;;4.90;2.17;;;;;;;25.32;53.37;95561.42;1756047;81;21473;-59
2021/06/26 07:51:25;;;;;;;7.70;1.90;;;;;;;25.41;51.46;95564.27;1752264;81;21074;-60
2021/06/26 07:53:52;;;;;;;3.35;1.82;;;;;;;25.45;50.96;95575.22;1743292;81;21032;-59
2021/06/26 07:56:19;;;;;;;7.60;2.42;;;;;;;25.50;50.90;95569.42;1746347;81;21018;-60
2021/06/26 07:58:45;;;;;;;4.03;2.17;;;;;;;25.57;52.04;95576.08;1728908;80;21039;-60
2021/06/26 08:01:12;;;;;;;3.92;1.95;;;;;;;25.61;51.00;95565.91;1762593;81;21021;-60
2021/06/26 08:03:39;;;;;;;6.67;2.25;;;;;;;25.64;51.19;95571.91;1731467;81;21066;-60
2021/06/26 08:06:05;;;;;;;6.22;2.50;;;;;;;25.77;51.47;95577.70;1733541;81;21552;-60
2021/06/26 08:08:32;;;;;;;6.20;2.65;;;;;;;25.84;50.51;95578.94;1729501;81;21023;-60
2021/06/26 08:10:58;;;;;;;4.25;2.10;;;;;;;25.83;49.57;95586.66;1750813;80;21152;-60
2021/06/26 08:13:26;;;;;;;9.78;2.15;;;;;;;25.82;49.94;95576.84;1734947;81;21034;-60
2021/06/26 08:15:52;;;;;;;8.53;2.40;;;;;;;25.89;50.79;95580.81;1758895;81;21007;-60
2021/06/26 08:18:19;;;;;;;3.95;1.87;;;;;;;26.04;51.83;95566.06;1755979;81;21030;-60
2021/06/26 08:20:45;;;;;;;5.15;2.10;;;;;;;26.16;49.48;95563.34;1736138;81;21045;-60
2021/06/26 08:23:12;;;;;;;18.07;2.20;;;;;;;26.21;49.66;95571.47;1753067;81;21555;-60
2021/06/26 08:25:39;;;;;;;3.62;1.82;;;;;;;26.26;48.72;95569.25;1761570;81;21030;-60
2021/06/26 08:28:06;;;;;;;3.87;1.80;;;;;;;26.31;45.57;95568.39;1728814;81;21090;-59
2021/06/26 08:30:32;;;;;;;4.37;1.87;;;;;;;26.37;47.84;95571.57;1729238;81;21523;-60
2021/06/26 08:33:00;;;;;;;4.97;2.17;;;;;;;26.44;46.68;95571.44;1733399;81;21034;-61
2021/06/26 08:35:26;;;;;;;3.65;1.80;;;;;;;26.50;47.47;95576.34;1737894;81;21039;-60
2021/06/26 08:37:53;;;;;;;5.35;2.00;;;;;;;26.35;46.89;95567.63;1750845;81;21038;-59
2021/06/26 08:40:21;;;;;;;7.08;2.10;;;;;;;26.55;48.14;95574.14;1756747;81;20983;-60
2021/06/26 08:42:47;;;;;;;3.35;2.22;;;;;;;26.63;46.17;95574.86;1761296;81;21026;-60
2021/06/26 08:45:18;;;;;;;4.47;1.98;;;;;;;26.70;46.42;95570.16;1749923;81;21027;-59
2021/06/26 08:47:55;;;;;;;10.43;2.42;;;;;;;26.78;47.16;95567.31;1729082;81;21007;-60
2021/06/26 08:50:27;;;;;;;4.08;1.70;;;;;;;26.86;46.51;95568.41;1738412;81;21030;-60
2021/06/26 08:52:54;;;;;;;4.67;2.35;;;;;;;26.93;45.96;95572.30;1724817;81;21026;-61
2021/06/26 08:55:22;;;;;;;5.20;1.80;;;;;;;26.99;45.54;95564.17;1750486;81;21045;-60
2021/06/26 08:57:49;;;;;;;7.12;2.10;;;;;;;27.08;46.77;95571.50;1765337;81;21050;-60
2021/06/26 09:00:21;;;;;;;6.42;2.33;;;;;;;27.25;47.53;95577.38;1759633;81;21069;-60
2021/06/26 09:02:48;;;;;;;4.87;2.15;;;;;;;27.31;46.41;95577.69;1738939;81;21046;-60
2021/06/26 09:05:30;;;;;;;5.75;1.82;;;;;;;27.40;45.13;95577.41;1754223;81;20995;-60
2021/06/26 09:08:15;;;;;;;8.00;2.20;;;;;;;27.43;43.07;95577.64;1744922;81;21042;-60
2021/06/26 09:10:45;;;;;;;3.83;1.98;;;;;;;27.59;44.57;95579.38;1743155;81;21050;-60
2021/06/26 09:13:28;;;;;;;6.67;1.60;;;;;;;27.76;45.33;95578.77;1761312;81;21513;-60
2021/06/26 09:16:15;;;;;;;7.72;2.10;;;;;;;27.69;40.82;95581.65;1761311;81;21036;-60
2021/06/26 09:18:49;;;;;;;2.52;1.52;;;;;;;27.83;43.41;95588.63;1763184;81;21116;-60
2021/06/26 09:21:34;;;;;;;6.60;2.15;;;;;;;27.99;44.94;95577.28;1749835;81;21039;-60
2021/06/26 09:24:09;;;;;;;6.12;1.90;;;;;;;28.20;42.81;95581.32;1734684;81;21055;-60
2021/06/26 09:26:43;;;;;;;6.20;1.80;;;;;;;27.92;40.96;95578.34;1723754;81;21011;-59
2021/06/26 09:29:15;;;;;;;4.45;1.60;;;;;;;28.23;41.79;95577.82;1742378;81;21077;-60
2021/06/26 09:31:55;;;;;;;7.03;2.10;;;;;;;28.56;41.91;95575.81;1738454;81;21051;-60
2021/06/26 09:34:25;;;;;;;3.15;1.45;;;;;;;28.36;42.23;95584.86;1740378;81;21181;-60
2021/06/26 09:37:01;;;;;;;5.05;2.00;;;;;;;28.25;41.51;95581.77;1756718;81;21038;-60
2021/06/26 09:39:40;;;;;;;2.55;2.00;;;;;;;28.45;42.21;95584.94;1742253;80;21002;-59
2021/06/26 09:42:24;;;;;;;6.10;1.80;;;;;;;28.69;42.32;95579.63;1744550;81;20999;-60
2021/06/26 09:45:06;;;;;;;7.40;2.10;;;;;;;28.83;40.27;95576.52;1749212;81;21003;-60
2021/06/26 09:47:45;;;;;;;4.75;2.40;;;;;;;28.88;40.22;95574.23;1724625;81;21003;-60
2021/06/26 09:50:25;;;;;;;5.20;2.15;;;;;;;29.04;41.85;95575.53;1724103;81;21540;-60
2021/06/26 09:53:00;;;;;;;6.53;2.40;;;;;;;28.83;38.98;95572.44;1751888;81;21097;-60
2021/06/26 09:55:35;;;;;;;6.12;2.70;;;;;;;28.98;41.14;95576.08;1756030;81;21057;-59
2021/06/26 09:58:11;;;;;;;7.83;2.33;;;;;;;29.34;42.39;95582.70;1756373;81;21544;-60
2021/06/26 10:00:43;;;;;;;4.05;2.02;;;;;;;29.58;40.72;95570.00;1747644;81;21034;-60
2021/06/26 10:03:18;;;;;;;4.28;2.20;;;;;;;29.30;38.11;95573.97;1752328;81;21018;-60
2021/06/26 10:05:46;;;;;;;5.78;2.15;;;;;;;29.23;40.46;95574.21;1763393;81;21050;-60
2021/06/26 10:08:15;;;;;;;4.08;1.90;;;;;;;29.31;39.82;95577.56;1751811;81;21157;-60
2021/06/26 10:10:43;;;;;;;4.92;2.27;;;;;;;29.06;39.02;95572.20;1738553;81;21038;-60
2021/06/26 10:13:13;;;;;;;4.58;2.02;;;;;;;29.12;40.69;95570.27;1726404;81;21026;-60
2021/06/26 10:15:40;;;;;;;2.47;1.95;;;;;;;28.90;37.21;95574.07;1760082;81;21046;-60
2021/06/26 10:18:11;;;;;;;3.37;1.98;;;;;;;28.85;39.43;95567.73;1754280;81;21054;-60
2021/06/26 10:20:39;;;;;;;4.67;2.00;;;;;;;28.95;40.12;95578.58;1724443;81;21082;-59
2021/06/26 10:23:06;;;;;;;9.00;2.10;;;;;;;28.94;37.11;95571.95;1733576;81;21080;-60
2021/06/26 10:25:39;;;;;;;3.20;2.47;;;;;;;29.08;37.62;95567.46;1735350;81;21078;-60
2021/06/26 10:28:13;;;;;;;6.40;2.27;;;;;;;29.23;38.70;95566.06;1756140;81;21034;-60
2021/06/26 10:30:41;;;;;;;4.35;2.12;;;;;;;29.31;39.33;95570.77;1743837;81;21027;-60
2021/06/26 10:33:10;;;;;;;3.40;2.25;;;;;;;29.18;39.42;95568.34;1742765;81;20987;-59
2021/06/26 10:35:42;;;;;;;4.47;2.80;;;;;;;29.32;38.16;95573.33;1724482;81;21034;-60
2021/06/26 10:38:11;;;;;;;5.37;2.90;;;;;;;29.46;39.18;95571.16;1754875;81;21043;-60
2021/06/26 10:40:53;;;;;;;9.28;2.92;;;;;;;29.73;39.46;95573.16;1764709;81;21037;-60
2021/06/26 10:43:31;;;;;;;4.47;2.53;;;;;;;29.89;39.43;95569.34;1742110;81;21042;-60
2021/06/26 10:46:13;;;;;;;4.83;2.45;;;;;;;30.05;39.14;95570.06;1748553;81;21846;-59
2021/06/26 10:48:42;;;;;;;6.10;3.80;;;;;;;30.22;38.49;95583.40;1760467;81;21030;-60
2021/06/26 10:51:10;;;;;;;7.37;2.87;;;;;;;30.04;38.03;95575.16;1742713;81;21574;-60
2021/06/26 10:53:41;;;;;;;6.62;2.62;;;;;;;30.01;37.59;95576.80;1745507;81;21200;-60
2021/06/26 10:56:13;;;;;;;5.28;2.50;;;;;;;29.99;37.13;95582.91;1750301;81;21524;-60
2021/06/26 10:58:47;;;;;;;3.62;2.42;;;;;;;29.71;36.67;95582.84;1733353;81;21042;-60
2021/06/26 11:01:22;;;;;;;5.22;2.92;;;;;;;29.79;37.26;95578.50;1724231;81;21023;-60
2021/06/26 11:04:11;;;;;;;6.22;2.80;;;;;;;29.88;38.10;95575.77;1738360;81;21552;-60
2021/06/26 11:06:39;;;;;;;3.92;2.98;;;;;;;30.07;38.99;95575.37;1724492;81;21071;-60
2021/06/26 11:09:12;;;;;;;6.28;3.40;;;;;;;30.10;39.88;95569.11;1740558;81;21038;-60
2021/06/26 11:11:48;;;;;;;;;;;;;;;30.14;39.37;95571.91;1727186;80;21058;-60
2021/06/26 11:14:20;;;;;;;7.05;3.12;;;;;;;29.59;39.19;95573.60;1729567;81;20115;-59
2021/06/26 11:16:54;;;;;;;9.10;7.60;;;;;;;29.46;41.76;95581.56;1740507;81;21034;-60
2021/06/26 11:19:24;;;;;;;7.55;3.77;;;;;;;29.72;39.38;95578.25;1747687;81;21073;-60
2021/06/26 11:21:54;;;;;;;10.03;3.30;;;;;;;29.94;39.66;95573.83;1714751;82;21058;-60
2021/06/26 11:24:34;;;;;;;5.00;3.02;;;;;;;30.07;38.91;95573.50;1742277;81;21081;-59
2021/06/26 11:27:02;;;;;;;4.05;2.60;;;;;;;30.16;38.73;95575.81;1738450;81;20991;-60
2021/06/26 11:29:34;;;;;;;3.55;2.87;;;;;;;30.38;37.02;95573.25;1763669;81;21027;-60
2021/06/26 11:32:05;;;;;;;6.15;2.92;;;;;;;30.40;40.25;95555.76;1763888;81;21046;-60
2021/06/26 11:34:32;;;;;;;6.92;3.35;;;;;;;30.40;40.25;95555.76;1745334;81;21465;-59
2021/06/26 11:37:06;;;;;;;5.47;3.77;;;;;;;30.53;41.36;95560.84;1735920;80;21046;-60
2021/06/26 11:39:34;;;;;;;8.43;4.00;;;;;;;30.65;41.76;95562.02;1751796;81;21015;-60
2021/06/26 11:42:02;;;;;;;4.80;3.50;;;;;;;30.82;40.23;95558.50;1735424;81;20991;-60